createdAt,value
2023-02-23T00:02:46.310Z,100167.56
2023-02-23T00:07:50.375Z,100160.91
2023-02-23T00:12:53.276Z,100161.28
2023-02-23T00:17:57.837Z,100161.84
2023-02-23T00:23:00.975Z,100169.16
2023-02-23T00:28:04.563Z,100164.03
2023-02-23T00:33:07.678Z,100167.34
2023-02-23T00:38:10.615Z,100165.44
2023-02-23T00:43:15.231Z,100163.50
2023-02-23T00:48:18.270Z,100166.72
2023-02-23T00:53:21.226Z,100167.97
2023-02-23T00:58:27.768Z,100163.16
2023-02-23T01:03:30.948Z,100168.56
2023-02-23T01:08:35.463Z,100169.81
2023-02-23T01:13:39.424Z,100168.47
2023-02-23T01:18:46.711Z,100166.25
2023-02-23T01:23:51.308Z,100171.94
2023-02-23T01:29:00.781Z,100175.13
2023-02-23T01:34:06.115Z,100182.06
2023-02-23T01:39:15.944Z,100168.88
2023-02-23T01:44:18.927Z,100170.56
2023-02-23T01:49:28.105Z,100167.81
2023-02-23T01:54:38.154Z,100163.91
2023-02-23T01:59:47.040Z,100161.97
2023-02-23T02:04:52.398Z,100160.03
2023-02-23T02:10:13.810Z,100159.75
2023-02-23T02:15:19.419Z,100171.16
2023-02-23T02:20:42.971Z,100158.78
2023-02-23T02:26:37.547Z,100161.28
2023-02-23T02:31:49.815Z,100161.97
2023-02-23T02:37:45.441Z,100159.22
2023-02-23T02:43:00.267Z,100163.63
2023-02-23T02:48:38.750Z,100159.22
2023-02-23T02:54:38.055Z,100164.50
2023-02-23T03:00:06.885Z,100165.44
2023-02-23T03:05:38.186Z,100165.44
2023-02-23T03:11:28.697Z,100169.06
2023-02-23T03:17:07.277Z,100181.25
2023-02-23T03:23:01.163Z,100172.50
2023-02-23T03:28:51.553Z,100174.31
2023-02-23T03:34:30.069Z,100177.78
2023-02-23T03:40:04.545Z,100179.59
2023-02-23T03:45:37.507Z,100172.50
2023-02-23T03:51:12.593Z,100181.41
2023-02-23T03:56:37.174Z,100173.63
2023-02-23T04:01:59.270Z,100180.72
2023-02-23T04:07:23.009Z,100184.19
2023-02-23T04:12:57.668Z,100180.00
2023-02-23T04:18:00.788Z,100185.28
2023-02-23T04:23:03.830Z,100185.41
2023-02-23T04:28:07.003Z,100185.56
2023-02-23T04:33:10.264Z,100182.09
2023-02-23T04:38:13.170Z,100178.75
2023-02-23T04:43:16.266Z,100185.00
2023-02-23T04:48:19.491Z,100189.44
2023-02-23T04:53:22.691Z,100186.94
2023-02-23T04:58:25.776Z,100190.41
2023-02-23T05:03:28.731Z,100185.13
2023-02-23T05:08:31.709Z,100183.63
2023-02-23T05:13:35.125Z,100190.69
2023-02-23T05:18:38.041Z,100191.63
2023-02-23T05:23:41.730Z,100191.78
2023-02-23T05:28:45.172Z,100198.72
2023-02-23T05:33:48.183Z,100194.41
2023-02-23T05:38:51.145Z,100192.75
2023-02-23T05:43:55.245Z,100199.84
2023-02-23T05:49:01.316Z,100203.28
2023-02-23T05:54:04.777Z,100204.97
2023-02-23T05:59:07.774Z,100202.19
2023-02-23T06:04:11.068Z,100213.56
2023-02-23T06:09:14.042Z,100214.28
2023-02-23T06:14:17.543Z,100218.28
2023-02-23T06:19:21.806Z,100231.34
2023-02-23T06:24:24.919Z,100238.72
2023-02-23T06:29:28.569Z,100236.91
2023-02-23T06:34:32.069Z,100248.72
2023-02-23T06:39:34.996Z,100256.09
2023-02-23T06:44:38.076Z,100263.34
2023-02-23T06:49:40.983Z,100261.16
2023-02-23T06:54:44.813Z,100262.41
2023-02-23T06:59:48.057Z,100263.91
2023-02-23T07:04:51.123Z,100259.06
2023-02-23T07:09:53.988Z,100263.53
2023-02-23T07:14:57.148Z,100272.41
2023-02-23T07:20:00.116Z,100267.16
2023-02-23T07:25:04.575Z,100275.03
2023-02-23T07:30:08.860Z,100275.63
2023-02-23T07:35:12.514Z,100277.84
2023-02-23T07:40:16.220Z,100272.00
2023-02-23T07:45:19.506Z,100272.13
2023-02-23T07:50:22.463Z,100270.03
2023-02-23T07:55:25.472Z,100263.38
2023-02-23T08:00:28.620Z,100271.41
2023-02-23T08:05:32.220Z,100275.56
2023-02-23T08:10:35.125Z,100274.69
2023-02-23T08:15:38.634Z,100272.69
2023-02-23T08:20:41.415Z,100278.50
2023-02-23T08:25:44.513Z,100280.25
2023-02-23T08:30:47.504Z,100278.94
2023-02-23T08:35:53.565Z,100273.34
2023-02-23T08:41:01.734Z,100282.19
2023-02-23T08:46:06.591Z,100284.25
2023-02-23T08:51:09.813Z,100283.97
2023-02-23T08:56:13.397Z,100287.69
2023-02-23T09:01:22.165Z,100295.91
2023-02-23T09:06:26.760Z,100293.06
2023-02-23T09:11:29.666Z,100295.19
2023-02-23T09:16:33.487Z,100291.13
2023-02-23T09:21:36.745Z,100296.59
2023-02-23T09:26:43.537Z,100291.50
2023-02-23T09:31:48.099Z,100293.94
2023-02-23T09:36:52.186Z,100284.53
2023-02-23T09:42:13.071Z,100287.13
2023-02-23T09:47:27.786Z,100293.50
2023-02-23T09:52:45.412Z,100295.09
2023-02-23T09:57:49.922Z,100293.69
2023-02-23T10:03:02.269Z,100294.31
2023-02-23T10:08:19.549Z,100287.22
2023-02-23T10:13:49.185Z,100284.66
2023-02-23T10:19:04.144Z,100291.69
2023-02-23T10:24:29.219Z,100288.59
2023-02-23T10:29:52.462Z,100275.38
2023-02-23T10:34:56.970Z,100277.22
2023-02-23T10:40:00.093Z,100278.09
2023-02-23T10:45:03.551Z,100260.81
2023-02-23T10:50:09.719Z,100257.34
2023-02-23T10:55:31.800Z,100245.88
2023-02-23T11:00:41.201Z,100243.22
2023-02-23T11:05:50.478Z,100247.72
2023-02-23T11:11:06.838Z,100236.09
2023-02-23T11:16:17.201Z,100234.44
2023-02-23T11:21:38.859Z,100228.59
2023-02-23T11:26:44.472Z,100218.94
2023-02-23T11:31:52.510Z,100217.47
2023-02-23T11:37:06.257Z,100215.63
2023-02-23T11:42:23.246Z,100209.31
2023-02-23T11:47:26.304Z,100213.94
2023-02-23T11:52:30.172Z,100210.63
2023-02-23T11:57:37.026Z,100201.16
2023-02-23T12:03:03.647Z,100188.00
2023-02-23T12:08:28.470Z,100187.69
2023-02-23T12:13:56.620Z,100182.25
2023-02-23T12:19:19.239Z,100177.31
2023-02-23T12:24:35.042Z,100179.50
2023-02-23T12:29:55.829Z,100177.81
2023-02-23T12:35:04.955Z,100166.53
2023-02-23T12:40:19.362Z,100168.88
2023-02-23T12:46:02.949Z,100162.91
2023-02-23T12:51:25.414Z,100151.59
2023-02-23T12:56:53.982Z,100149.94
2023-02-23T13:02:01.453Z,100138.63
2023-02-23T13:07:41.873Z,100145.75
2023-02-23T13:13:11.405Z,100131.47
2023-02-23T13:18:41.479Z,100126.16
2023-02-23T13:24:11.184Z,100116.50
2023-02-23T13:29:32.865Z,100122.97
2023-02-23T13:34:54.616Z,100120.47
2023-02-23T13:40:41.115Z,100111.00
2023-02-23T13:46:25.661Z,100103.22
2023-02-23T13:51:52.266Z,100105.72
2023-02-23T13:56:59.215Z,100104.72
2023-02-23T14:02:37.257Z,100103.72
2023-02-23T14:07:45.095Z,100102.75
2023-02-23T14:13:26.640Z,100109.38
2023-02-23T14:18:33.196Z,100106.56
2023-02-23T14:24:13.061Z,100103.38
2023-02-23T14:29:31.987Z,100105.41
2023-02-23T14:34:57.563Z,100102.63
2023-02-23T14:40:25.182Z,100107.28
2023-02-23T14:45:38.970Z,100105.47
2023-02-23T14:50:42.255Z,100102.13
2023-02-23T14:55:45.688Z,100106.13
2023-02-23T15:00:49.405Z,100092.97
2023-02-23T15:05:58.971Z,100090.50
2023-02-23T15:11:13.311Z,100085.84
2023-02-23T15:16:23.153Z,100080.56
2023-02-23T15:21:26.645Z,100081.38
2023-02-23T15:26:37.522Z,100087.34
2023-02-23T15:31:50.389Z,100082.72
2023-02-23T15:37:05.849Z,100076.91
2023-02-23T15:42:16.594Z,100081.25
2023-02-23T15:47:28.500Z,100082.22
2023-02-23T15:52:35.152Z,100078.56
2023-02-23T15:57:56.264Z,100074.09
2023-02-23T16:03:02.774Z,100082.19
2023-02-23T16:08:24.320Z,100078.00
2023-02-23T16:13:27.472Z,100088.78
2023-02-23T16:18:40.691Z,100082.25
2023-02-23T16:23:49.409Z,100079.75
2023-02-23T16:29:02.192Z,100085.00
2023-02-23T16:34:31.696Z,100082.50
2023-02-23T16:39:34.697Z,100079.94
2023-02-23T16:44:43.645Z,100082.41
2023-02-23T16:49:47.040Z,100083.19
2023-02-23T16:54:54.597Z,100082.00
2023-02-23T16:59:58.877Z,100079.16
2023-02-23T17:05:01.903Z,100085.06
2023-02-23T17:10:06.321Z,100081.22
2023-02-23T17:15:18.994Z,100078.69
2023-02-23T17:20:26.257Z,100074.88
2023-02-23T17:25:29.461Z,100083.94
2023-02-23T17:30:32.720Z,100087.22
2023-02-23T17:35:37.622Z,100084.88
2023-02-23T17:40:40.512Z,100077.25
2023-02-23T17:45:43.556Z,100090.81
2023-02-23T17:50:46.539Z,100085.13
2023-02-23T17:55:51.377Z,100082.13
2023-02-23T18:00:59.414Z,100080.59
2023-02-23T18:06:11.695Z,100074.63
2023-02-23T18:11:18.764Z,100065.19
2023-02-23T18:16:23.453Z,100066.63
2023-02-23T18:21:26.638Z,100073.03
2023-02-23T18:26:30.784Z,100066.41
2023-02-23T18:31:35.147Z,100064.06
2023-02-23T18:36:38.628Z,100067.88
2023-02-23T18:41:42.611Z,100061.22
2023-02-23T18:46:46.682Z,100068.59
2023-02-23T18:51:49.982Z,100060.44
2023-02-23T18:56:54.526Z,100059.41
2023-02-23T19:01:57.726Z,100055.53
2023-02-23T19:07:00.698Z,100052.38
2023-02-23T19:12:03.948Z,100056.47
2023-02-23T19:17:07.071Z,100057.06
2023-02-23T19:22:10.084Z,100055.84
2023-02-23T19:27:12.870Z,100060.19
2023-02-23T19:32:19.056Z,100064.41
2023-02-23T19:37:24.509Z,100060.03
2023-02-23T19:42:27.516Z,100066.75
2023-02-23T19:47:30.690Z,100071.47
2023-02-23T19:52:34.900Z,100063.47
2023-02-23T19:57:37.852Z,100057.09
2023-02-23T20:02:44.646Z,100058.81
2023-02-23T20:07:48.696Z,100057.16
2023-02-23T20:12:53.360Z,100048.25
2023-02-23T20:17:56.051Z,100050.44
2023-02-23T20:22:59.093Z,100048.22
2023-02-23T20:28:03.349Z,100037.19
2023-02-23T20:33:10.961Z,100029.25
2023-02-23T20:38:15.488Z,100031.47
2023-02-23T20:43:18.523Z,100023.16
2023-02-23T20:48:21.540Z,100019.53
2023-02-23T20:53:26.348Z,100029.41
2023-02-23T20:58:29.206Z,100024.81
2023-02-23T21:03:35.724Z,100023.16
2023-02-23T21:08:39.937Z,100016.88
2023-02-23T21:13:43.484Z,100020.91
2023-02-23T21:18:52.592Z,100014.63
2023-02-23T21:23:55.501Z,100019.63
2023-02-23T21:28:58.521Z,100019.63
2023-02-23T21:34:05.478Z,100015.34
2023-02-23T21:39:08.589Z,100003.78
2023-02-23T21:44:12.161Z,100012.00
2023-02-23T21:49:16.633Z,100012.00
2023-02-23T21:54:21.588Z,100005.66
2023-02-23T21:59:24.576Z,100000.53
2023-02-23T22:04:27.574Z,99998.16
2023-02-23T22:09:30.504Z,99990.38
2023-02-23T22:14:33.643Z,99992.34
2023-02-23T22:19:36.535Z,99986.09
2023-02-23T22:24:39.484Z,99976.78
2023-02-23T22:29:43.602Z,99980.41
2023-02-23T22:34:46.547Z,99972.50
2023-02-23T22:39:50.021Z,99970.53
2023-02-23T22:44:53.086Z,99967.88
2023-02-23T22:49:55.833Z,99963.31
2023-02-23T22:54:59.556Z,99962.31
2023-02-23T23:00:10.390Z,99951.09
2023-02-23T23:05:13.938Z,99944.97
2023-02-23T23:10:18.138Z,99945.09
2023-02-23T23:15:22.193Z,99940.81
2023-02-23T23:20:26.385Z,99933.88
2023-02-23T23:25:29.715Z,99936.53
2023-02-23T23:30:35.254Z,99934.88
2023-02-23T23:35:38.175Z,99927.09
2023-02-23T23:40:46.926Z,99916.81
2023-02-23T23:45:51.931Z,99920.59
2023-02-23T23:50:56.237Z,99911.16
2023-02-23T23:56:09.094Z,99901.84
